createdAt,value
2018-12-12T00:00:21.361Z,0
2018-12-12T00:01:22.319Z,0
2018-12-12T00:02:22.446Z,0
2018-12-12T00:03:22.851Z,0
2018-12-12T00:04:24.255Z,0
2018-12-12T00:05:25.499Z,0
2018-12-12T00:06:26.179Z,0
2018-12-12T00:07:27.412Z,0
2018-12-12T00:08:27.817Z,0
2018-12-12T00:09:27.943Z,0
2018-12-12T00:10:28.744Z,0
2018-12-12T00:11:29.148Z,0
2018-12-12T00:12:30.381Z,0
2018-12-12T00:13:31.127Z,0
2018-12-12T00:14:31.255Z,0
2018-12-12T00:15:33.212Z,0
2018-12-12T00:16:33.628Z,0
2018-12-12T00:17:34.032Z,0
2018-12-12T00:18:34.994Z,0
2018-12-12T00:19:35.118Z,0
2018-12-12T00:20:35.926Z,0
2018-12-12T00:21:36.054Z,0
2018-12-12T00:22:37.452Z,0
2018-12-12T00:23:38.134Z,0
2018-12-12T00:24:38.259Z,0
2018-12-12T00:25:38.937Z,0
2018-12-12T00:26:39.342Z,0
2018-12-12T00:27:39.750Z,0
2018-12-12T00:28:39.872Z,0
2018-12-12T00:29:40.998Z,0
2018-12-12T00:30:41.831Z,0
2018-12-12T00:31:42.232Z,0
2018-12-12T00:32:42.365Z,0
2018-12-12T00:33:43.319Z,0
2018-12-12T00:34:43.441Z,0
2018-12-12T00:35:44.684Z,0
2018-12-12T00:36:45.643Z,0
2018-12-12T00:37:46.326Z,0
2018-12-12T00:38:46.730Z,0
2018-12-12T00:39:47.137Z,0
2018-12-12T00:40:48.523Z,0
2018-12-12T00:41:49.486Z,0
2018-12-12T00:42:50.997Z,0
2018-12-12T00:43:51.234Z,0
2018-12-12T00:44:52.195Z,0
2018-12-12T00:45:51.887Z,0
2018-12-12T00:46:53.344Z,0
2018-12-12T00:47:53.746Z,0
2018-12-12T00:48:55.153Z,0
2018-12-12T00:49:55.842Z,0
2018-12-12T00:50:56.654Z,0
2018-12-12T00:51:57.114Z,0
2018-12-12T00:52:57.516Z,0
2018-12-12T00:53:59.199Z,0
2018-12-12T00:54:59.882Z,0
2018-12-12T00:56:00.284Z,0
2018-12-12T00:57:00.964Z,0
2018-12-12T00:58:01.088Z,0
2018-12-12T00:59:02.496Z,0
2018-12-12T01:00:02.895Z,0
2018-12-12T01:01:04.583Z,0
2018-12-12T01:02:04.708Z,0
2018-12-12T01:03:06.111Z,0
2018-12-12T01:04:06.242Z,0
2018-12-12T01:05:08.199Z,0
2018-12-12T01:06:08.603Z,0
2018-12-12T01:07:09.847Z,0
2018-12-12T01:08:10.529Z,0
2018-12-12T01:09:10.941Z,0
2018-12-12T01:10:11.352Z,0
2018-12-12T01:11:12.460Z,0
2018-12-12T01:12:12.862Z,0
2018-12-12T01:13:13.028Z,0
2018-12-12T01:14:13.988Z,0
2018-12-12T01:15:14.392Z,0
2018-12-12T01:16:15.798Z,0
2018-12-12T01:17:16.755Z,0
2018-12-12T01:18:16.880Z,0
2018-12-12T01:19:18.560Z,0
2018-12-12T01:20:18.998Z,0
2018-12-12T01:21:19.399Z,0
2018-12-12T01:22:20.077Z,0
2018-12-12T06:30:13.517Z,0
2018-12-12T06:31:14.766Z,0
2018-12-12T06:32:15.473Z,0
2018-12-12T06:33:16.197Z,0
2018-12-12T06:34:16.891Z,0
2018-12-12T06:35:17.581Z,0
2018-12-12T06:36:18.004Z,0
2018-12-12T06:37:19.246Z,0
2018-12-12T06:38:20.218Z,0
2018-12-12T06:39:19.730Z,0
2018-12-12T06:40:20.586Z,0
2018-12-12T06:41:21.828Z,0
2018-12-12T06:42:21.289Z,0
2018-12-12T06:43:21.698Z,0
2018-12-12T06:44:22.389Z,0
2018-12-12T06:45:22.801Z,0
2018-12-12T06:46:24.485Z,0
2018-12-12T06:47:25.425Z,0
2018-12-12T06:48:26.714Z,0
2018-12-12T06:49:27.406Z,0
2018-12-12T06:50:29.344Z,0
2018-12-12T06:51:28.764Z,0
2018-12-12T06:52:29.193Z,0
2018-12-12T06:53:30.159Z,0
2018-12-12T06:54:30.845Z,0
2018-12-12T06:55:31.532Z,5.63
2018-12-12T06:56:32.275Z,5.63
2018-12-12T06:57:33.381Z,5.63
2018-12-12T06:58:33.512Z,5.63
2018-12-12T06:59:35.477Z,5.63
2018-12-12T07:00:36.126Z,5.63
2018-12-12T07:01:35.537Z,5.63
2018-12-12T07:02:35.958Z,5.63
2018-12-12T07:03:36.367Z,5.63
2018-12-12T07:04:36.781Z,5.63
2018-12-12T07:05:36.911Z,11.25
2018-12-12T07:06:37.890Z,11.25
2018-12-12T07:07:38.959Z,11.25
2018-12-12T07:08:39.367Z,11.25
2018-12-12T07:09:39.777Z,11.25
2018-12-12T07:10:40.693Z,11.25
2018-12-12T07:11:42.215Z,11.25
2018-12-12T07:12:42.187Z,16.88
2018-12-12T07:13:42.710Z,16.88
2018-12-12T07:14:43.422Z,16.88
2018-12-12T07:15:44.952Z,16.88
2018-12-12T07:16:45.879Z,16.88
2018-12-12T07:17:46.241Z,16.88
2018-12-12T07:18:46.472Z,16.88
2018-12-12T07:19:47.194Z,22.5
2018-12-12T07:20:47.449Z,22.5
2018-12-12T07:21:49.139Z,22.5
2018-12-12T07:22:51.002Z,22.5
2018-12-12T07:23:51.201Z,22.5
2018-12-12T07:24:51.336Z,28.13
2018-12-12T07:25:52.746Z,28.13
2018-12-12T07:26:53.880Z,28.13
2018-12-12T07:27:54.425Z,28.13
2018-12-12T07:28:54.841Z,33.75
2018-12-12T07:29:55.975Z,33.75
2018-12-12T07:30:57.663Z,33.75
2018-12-12T07:31:57.641Z,39.38
2018-12-12T07:32:58.333Z,39.38
2018-12-12T07:34:03.831Z,39.38
2018-12-12T07:35:04.085Z,39.38
2018-12-12T07:36:04.501Z,45
2018-12-12T07:37:05.751Z,45
2018-12-12T07:38:06.720Z,45
2018-12-12T07:39:07.284Z,50.63
2018-12-12T07:40:08.375Z,50.63
2018-12-12T07:41:09.025Z,56.25
2018-12-12T07:42:09.722Z,56.25
2018-12-12T07:43:09.898Z,61.88
2018-12-12T07:44:11.143Z,61.88
2018-12-12T07:45:11.110Z,61.88
2018-12-12T07:46:11.524Z,67.5
2018-12-12T07:47:14.978Z,73.13
2018-12-12T07:48:13.666Z,78.75
2018-12-12T07:49:14.357Z,84.38
2018-12-12T07:50:15.332Z,95.63
2018-12-12T07:51:15.630Z,101.25
2018-12-12T07:52:17.039Z,112.5
2018-12-12T07:53:18.732Z,112.5
2018-12-12T07:54:19.422Z,123.75
2018-12-12T07:55:19.840Z,135
2018-12-12T07:56:21.214Z,168.75
2018-12-12T07:57:20.794Z,196.88
2018-12-12T07:58:20.938Z,163.13
2018-12-12T07:59:22.076Z,163.13
2018-12-12T08:00:23.483Z,253.13
2018-12-12T08:01:24.883Z,253.13
2018-12-12T08:02:25.577Z,180
2018-12-12T08:03:25.991Z,168.75
2018-12-12T08:04:26.975Z,180
2018-12-12T08:05:27.393Z,196.88
2018-12-12T08:06:27.847Z,191.25
2018-12-12T08:07:28.557Z,191.25
2018-12-12T08:08:28.696Z,191.25
2018-12-12T08:09:30.667Z,185.63
2018-12-12T08:10:31.189Z,191.25
2018-12-12T08:11:31.290Z,185.63
2018-12-12T08:12:31.702Z,180
2018-12-12T08:13:32.117Z,337.5
2018-12-12T08:14:33.092Z,405
2018-12-12T08:15:34.968Z,208.13
2018-12-12T08:16:34.445Z,196.88
2018-12-12T08:17:34.863Z,202.5
2018-12-12T08:18:35.640Z,208.13
2018-12-12T08:19:36.704Z,213.75
2018-12-12T08:20:36.844Z,225
2018-12-12T08:21:37.423Z,241.88
2018-12-12T08:22:38.840Z,258.75
2018-12-12T08:23:39.807Z,258.75
2018-12-12T08:24:40.261Z,258.75
2018-12-12T08:25:41.395Z,270
2018-12-12T08:26:42.092Z,270
2018-12-12T08:27:42.507Z,275.63
2018-12-12T08:28:42.649Z,286.88
2018-12-12T08:29:43.347Z,292.5
2018-12-12T08:30:44.554Z,303.75
2018-12-12T08:31:45.098Z,343.13
2018-12-12T08:32:46.068Z,360
2018-12-12T08:33:46.485Z,348.75
2018-12-12T08:34:47.739Z,483.75
2018-12-12T08:35:48.988Z,742.5
2018-12-12T08:36:49.306Z,826.88
2018-12-12T08:37:51.280Z,759.38
2018-12-12T08:38:52.252Z,635.63
2018-12-12T08:39:53.114Z,489.38
2018-12-12T08:40:53.858Z,371.25
2018-12-12T08:41:55.046Z,343.13
2018-12-12T08:42:56.927Z,382.5
2018-12-12T08:43:56.706Z,450
2018-12-12T08:44:57.264Z,500.63
2018-12-12T08:45:58.466Z,506.25
2018-12-12T08:46:58.221Z,551.25
2018-12-12T08:47:59.185Z,540
2018-12-12T08:49:00.558Z,444.38
2018-12-12T08:50:02.594Z,416.25
2018-12-12T08:51:02.364Z,354.38
2018-12-12T08:52:02.859Z,421.88
2018-12-12T08:53:03.555Z,489.38
2018-12-12T08:54:04.024Z,495
2018-12-12T08:55:04.997Z,596.25
2018-12-12T08:56:05.814Z,601.88
2018-12-12T08:57:05.952Z,506.25
2018-12-12T08:58:07.369Z,438.75
2018-12-12T08:59:13.366Z,427.5
2018-12-12T08:59:19.276Z,427.5
2018-12-12T09:00:20.578Z,433.13
2018-12-12T09:01:20.995Z,433.13
2018-12-12T09:02:21.413Z,433.13
2018-12-12T09:03:22.830Z,433.13
2018-12-12T09:04:24.249Z,433.13
2018-12-12T09:05:24.692Z,495
2018-12-12T09:06:25.620Z,483.75
2018-12-12T09:07:26.832Z,534.38
2018-12-12T09:08:27.274Z,444.38
2018-12-12T09:09:29.170Z,382.5
2018-12-12T09:10:30.297Z,382.5
2018-12-12T09:11:30.711Z,388.13
2018-12-12T09:12:31.135Z,331.88
2018-12-12T09:13:31.286Z,298.13
2018-12-12T09:14:32.981Z,281.25
2018-12-12T09:15:33.636Z,286.88
2018-12-12T09:16:34.060Z,286.88
2018-12-12T09:17:34.472Z,303.75
2018-12-12T09:18:35.165Z,309.38
2018-12-12T09:19:35.947Z,309.38
2018-12-12T09:20:37.095Z,315
2018-12-12T09:21:37.731Z,326.25
2018-12-12T09:22:38.523Z,348.75
2018-12-12T09:23:39.220Z,371.25
2018-12-12T09:24:40.524Z,376.88
2018-12-12T09:25:41.701Z,365.63
2018-12-12T09:26:42.118Z,354.38
2018-12-12T09:27:42.808Z,343.13
2018-12-12T09:28:43.782Z,326.25
2018-12-12T09:29:44.225Z,326.25
2018-12-12T09:30:45.702Z,326.25
2018-12-12T09:31:46.618Z,337.5
2018-12-12T09:32:47.306Z,331.88
2018-12-12T09:33:48.280Z,331.88
2018-12-12T09:34:47.975Z,337.5
2018-12-12T09:35:49.936Z,331.88
2018-12-12T09:36:48.628Z,326.25
2018-12-12T09:37:50.289Z,320.63
2018-12-12T09:38:51.627Z,320.63
2018-12-12T09:39:52.366Z,326.25
2018-12-12T09:40:52.503Z,348.75
2018-12-12T09:41:52.917Z,360
2018-12-12T09:42:54.339Z,331.88
2018-12-12T09:43:54.755Z,298.13
2018-12-12T09:44:55.172Z,281.25
2018-12-12T09:45:55.863Z,270
2018-12-12T09:46:56.281Z,264.38
2018-12-12T09:47:56.700Z,258.75
2018-12-12T09:48:57.394Z,253.13
2018-12-12T09:49:57.534Z,253.13
2018-12-12T09:50:58.724Z,241.88
2018-12-12T09:51:11.020Z,241.88
2018-12-12T09:52:11.864Z,247.5
2018-12-12T09:53:12.557Z,247.5
2018-12-12T09:54:12.972Z,264.38
2018-12-12T09:55:14.317Z,286.88
2018-12-12T09:56:13.870Z,298.13
2018-12-12T09:57:14.283Z,303.75
2018-12-12T09:58:15.268Z,298.13
2018-12-12T09:59:15.963Z,286.88
2018-12-12T10:00:16.391Z,275.63
2018-12-12T10:01:16.821Z,258.75
2018-12-12T10:02:17.693Z,253.13
2018-12-12T10:03:18.449Z,241.88
2018-12-12T10:04:19.419Z,230.63
2018-12-12T10:05:20.822Z,230.63
2018-12-12T10:06:20.884Z,230.63
2018-12-12T10:07:20.298Z,236.25
2018-12-12T10:08:21.718Z,241.88
2018-12-12T10:09:22.964Z,253.13
2018-12-12T10:10:23.443Z,247.5
2018-12-12T10:11:23.578Z,241.88
2018-12-12T10:12:24.739Z,247.5
2018-12-12T10:13:25.159Z,247.5
2018-12-12T10:14:25.574Z,253.13
2018-12-12T10:15:25.987Z,247.5
2018-12-12T10:16:26.149Z,247.5
2018-12-12T10:17:27.855Z,247.5
2018-12-12T10:18:28.097Z,241.88
2018-12-12T10:19:28.511Z,241.88
2018-12-12T10:20:28.936Z,230.63
2018-12-12T10:21:29.081Z,219.38
2018-12-12T10:22:30.226Z,208.13
2018-12-12T10:23:30.644Z,202.5
2018-12-12T10:24:32.894Z,196.88
2018-12-12T10:25:32.871Z,185.63
2018-12-12T10:26:33.295Z,185.63
2018-12-12T10:27:34.459Z,185.63
2018-12-12T10:28:35.602Z,185.63
2018-12-12T10:29:39.135Z,185.63
2018-12-12T10:30:38.691Z,185.63
2018-12-12T10:31:38.670Z,185.63
2018-12-12T10:32:42.250Z,191.25
2018-12-12T10:33:40.950Z,191.25
2018-12-12T10:34:42.425Z,191.25
2018-12-12T10:35:42.848Z,191.25
2018-12-12T10:36:44.496Z,196.88
2018-12-12T10:37:43.695Z,196.88
2018-12-12T10:38:45.250Z,208.13
2018-12-12T10:39:46.433Z,225
2018-12-12T10:40:46.312Z,241.88
2018-12-12T10:41:46.645Z,258.75
2018-12-12T10:42:47.540Z,275.63
2018-12-12T10:43:48.752Z,298.13
2018-12-12T10:44:49.035Z,315
2018-12-12T10:45:49.075Z,326.25
2018-12-12T10:46:48.934Z,343.13
2018-12-12T10:47:50.240Z,360
2018-12-12T10:48:51.001Z,365.63
2018-12-12T10:49:51.111Z,365.63
2018-12-12T10:50:51.823Z,354.38
2018-12-12T10:51:53.246Z,348.75
2018-12-12T10:52:54.354Z,343.13
2018-12-12T10:53:55.059Z,343.13
2018-12-12T10:54:56.859Z,354.38
2018-12-12T10:55:56.279Z,382.5
2018-12-12T10:56:57.262Z,472.5
2018-12-12T10:58:11.056Z,438.75
2018-12-12T10:59:10.155Z,466.88
2018-12-12T11:00:15.474Z,573.75
2018-12-12T11:01:17.647Z,1350
2018-12-12T11:02:17.792Z,1895.63
2018-12-12T11:03:18.760Z,888.75
2018-12-12T11:04:20.027Z,601.88
2018-12-12T11:05:21.004Z,523.13
2018-12-12T11:06:21.702Z,444.38
2018-12-12T11:07:23.389Z,416.25
2018-12-12T11:08:23.524Z,388.13
2018-12-12T11:09:24.941Z,376.88
2018-12-12T11:10:25.358Z,365.63
2018-12-12T11:11:27.102Z,354.38
2018-12-12T11:12:27.546Z,343.13
2018-12-12T11:13:27.967Z,343.13
2018-12-12T11:14:28.384Z,343.13
2018-12-12T11:15:28.799Z,360
2018-12-12T11:16:30.670Z,382.5
2018-12-12T11:17:31.175Z,399.38
2018-12-12T11:18:32.880Z,427.5
2018-12-12T11:19:33.792Z,444.38
2018-12-12T11:20:33.637Z,455.63
2018-12-12T11:21:34.055Z,455.63
2018-12-12T11:22:35.028Z,450
2018-12-12T11:23:35.244Z,444.38
2018-12-12T11:24:36.417Z,444.38
2018-12-12T11:25:37.155Z,438.75
2018-12-12T11:26:37.334Z,433.13
2018-12-12T11:27:37.474Z,427.5
2018-12-12T11:28:41.147Z,421.88
2018-12-12T11:29:39.276Z,410.63
2018-12-12T11:30:39.416Z,410.63
2018-12-12T11:31:44.679Z,405
2018-12-12T11:32:41.910Z,399.38
2018-12-12T11:33:43.285Z,399.38
2018-12-12T11:34:43.698Z,399.38
2018-12-12T11:35:45.119Z,399.38
2018-12-12T11:36:45.848Z,393.75
2018-12-12T11:37:45.989Z,393.75
2018-12-12T11:38:47.685Z,393.75
2018-12-12T11:39:48.529Z,393.75
2018-12-12T11:40:50.786Z,388.13
2018-12-12T11:41:51.595Z,388.13
2018-12-12T11:42:51.303Z,382.5
2018-12-12T11:43:52.273Z,388.13
2018-12-12T11:44:52.978Z,393.75
2018-12-12T11:45:53.948Z,410.63
2018-12-12T11:46:53.973Z,444.38
2018-12-12T11:47:54.388Z,478.13
2018-12-12T11:48:55.359Z,500.63
2018-12-12T11:49:56.191Z,506.25
2018-12-12T11:50:56.330Z,483.75
2018-12-12T11:51:57.296Z,483.75
2018-12-12T11:52:57.829Z,489.38
2018-12-12T11:53:58.244Z,500.63
2018-12-12T11:54:58.685Z,511.88
2018-12-12T11:55:58.819Z,517.5
2018-12-12T11:57:00.232Z,534.38
2018-12-12T11:58:00.714Z,556.88
2018-12-12T11:59:19.942Z,590.63
2018-12-12T11:59:44.547Z,596.25
2018-12-12T11:59:56.027Z,596.25
2018-12-12T12:00:09.561Z,596.25
2018-12-12T12:00:20.169Z,601.88
2018-12-12T12:00:32.580Z,601.88
2018-12-12T12:00:42.903Z,607.5
2018-12-12T12:01:44.954Z,635.63
2018-12-12T12:01:51.843Z,635.63
2018-12-12T12:02:52.436Z,658.13
2018-12-12T12:03:59.503Z,686.25
2018-12-12T12:04:05.729Z,686.25
2018-12-12T12:05:06.572Z,697.5
2018-12-12T12:06:06.814Z,725.63
2018-12-12T12:07:07.146Z,815.63
2018-12-12T12:08:08.281Z,950.63
2018-12-12T12:09:09.042Z,883.13
2018-12-12T12:10:10.324Z,793.13
2018-12-12T12:11:11.594Z,916.88
2018-12-12T12:12:11.319Z,973.13
2018-12-12T12:13:12.023Z,950.63
2018-12-12T12:14:12.441Z,1260
2018-12-12T12:15:13.675Z,1344.38
2018-12-12T12:16:14.095Z,1400.63
2018-12-12T12:17:14.521Z,1192.5
2018-12-12T12:18:15.496Z,1170
2018-12-12T12:19:15.937Z,1344.38
2018-12-12T12:20:17.464Z,1614.38
2018-12-12T12:21:17.080Z,1895.63
2018-12-12T12:22:18.360Z,1980
2018-12-12T12:23:19.092Z,2019.38
2018-12-12T12:24:20.480Z,2030.63
2018-12-12T12:25:20.546Z,2188.13
2018-12-12T12:26:20.689Z,2272.5
2018-12-12T12:27:22.303Z,2227.5
2018-12-12T12:28:23.301Z,2356.88
2018-12-12T12:29:23.610Z,2531.25
2018-12-12T12:30:24.441Z,2632.5
2018-12-12T12:31:26.982Z,2356.88
2018-12-12T12:32:31.581Z,2148.75
2018-12-12T12:32:39.149Z,2148.75
2018-12-12T12:33:39.011Z,2182.5
2018-12-12T12:34:39.436Z,2345.63
2018-12-12T12:35:39.864Z,2109.38
2018-12-12T12:36:41.552Z,1906.88
2018-12-12T12:37:42.330Z,1636.88
2018-12-12T12:38:44.261Z,1569.38
2018-12-12T12:39:44.310Z,1355.63
2018-12-12T12:40:44.454Z,1411.88
2018-12-12T12:41:45.909Z,1248.75
2018-12-12T12:42:46.888Z,1029.38
2018-12-12T12:43:47.363Z,1119.38
2018-12-12T12:44:48.112Z,978.75
2018-12-12T12:45:48.810Z,832.5
2018-12-12T12:46:49.234Z,770.63
2018-12-12T12:47:49.709Z,708.75
2018-12-12T12:48:51.145Z,658.13
2018-12-12T12:49:51.038Z,900
2018-12-12T12:50:52.343Z,1243.13
2018-12-12T12:51:53.322Z,1001.25
2018-12-12T12:52:53.944Z,1091.25
2018-12-12T12:53:54.509Z,1721.25
2018-12-12T12:54:54.934Z,1243.13
2018-12-12T12:55:55.657Z,753.75
2018-12-12T12:56:55.809Z,1451.25
2018-12-12T12:57:56.549Z,1788.75
2018-12-12T12:58:57.806Z,1591.88
2018-12-12T12:59:57.836Z,1305
2018-12-12T13:01:02.450Z,900
2018-12-12T13:02:04.023Z,826.88
2018-12-12T13:02:13.820Z,855
2018-12-12T13:03:13.255Z,905.63
2018-12-12T13:04:13.961Z,742.5
2018-12-12T13:05:15.381Z,714.38
2018-12-12T13:06:15.806Z,1299.38
2018-12-12T13:07:16.428Z,1310.63
2018-12-12T13:08:29.899Z,787.5
2018-12-12T13:09:29.551Z,528.75
2018-12-12T13:10:31.353Z,1001.25
2018-12-12T13:11:31.775Z,1215
2018-12-12T13:12:32.180Z,1130.63
2018-12-12T13:13:33.650Z,1243.13
2018-12-12T13:14:48.831Z,1276.88
2018-12-12T13:15:48.318Z,1372.5
2018-12-12T13:16:49.028Z,1288.13
2018-12-12T13:17:49.451Z,1023.75
2018-12-12T13:18:50.157Z,748.13
2018-12-12T13:19:50.581Z,871.88
2018-12-12T13:20:51.565Z,1344.38
2018-12-12T13:21:51.718Z,1389.38
2018-12-12T13:22:52.858Z,1288.13
2018-12-12T13:23:53.839Z,1344.38
2018-12-12T13:24:58.501Z,1406.25
2018-12-12T13:25:57.258Z,1462.5
2018-12-12T13:26:56.756Z,1350
2018-12-12T13:27:57.178Z,1417.5
2018-12-12T13:28:58.262Z,1546.88
2018-12-12T13:29:59.515Z,1518.75
2018-12-12T13:30:58.673Z,1462.5
2018-12-12T13:32:03.818Z,1670.63
2018-12-12T13:33:03.764Z,1659.38
2018-12-12T13:34:02.939Z,1676.25
2018-12-12T13:35:08.245Z,1541.25
2018-12-12T13:36:05.902Z,1096.88
2018-12-12T13:37:07.385Z,1080
2018-12-12T13:38:08.370Z,1046.25
2018-12-12T13:39:08.065Z,1040.63
2018-12-12T13:40:09.043Z,1203.75
2018-12-12T13:41:09.475Z,1248.75
2018-12-12T13:42:09.669Z,1175.63
2018-12-12T13:43:10.697Z,1057.5
2018-12-12T13:44:11.407Z,956.25
2018-12-12T13:45:11.843Z,871.88
2018-12-12T13:46:12.386Z,646.88
2018-12-12T13:47:19.466Z,838.13
2018-12-12T13:47:25.479Z,877.5
2018-12-12T13:48:25.868Z,1130.63
2018-12-12T13:49:27.949Z,1136.25
2018-12-12T13:50:28.366Z,967.5
2018-12-12T13:51:28.801Z,753.75
2018-12-12T13:52:29.780Z,607.5
2018-12-12T13:53:30.476Z,753.75
2018-12-12T13:54:30.619Z,922.5
2018-12-12T13:55:31.042Z,843.75
2018-12-12T13:56:31.766Z,798.75
2018-12-12T13:57:32.464Z,984.38
2018-12-12T13:58:32.760Z,1029.38
2018-12-12T13:59:34.175Z,928.13
2018-12-12T14:00:41.113Z,708.75
2018-12-12T14:00:47.219Z,703.13
2018-12-12T14:01:48.063Z,725.63
2018-12-12T14:02:50.219Z,888.75
2018-12-12T14:03:53.146Z,1012.5
2018-12-12T14:04:52.846Z,1046.25
2018-12-12T14:05:53.542Z,990
2018-12-12T14:06:54.519Z,956.25
2018-12-12T14:07:54.941Z,911.25
2018-12-12T14:08:55.912Z,950.63
2018-12-12T14:09:56.331Z,961.88
2018-12-12T14:10:58.027Z,1035
2018-12-12T14:11:58.433Z,1018.13
2018-12-12T14:12:58.864Z,838.13
2018-12-12T14:13:59.283Z,697.5
2018-12-12T14:14:59.714Z,528.75
2018-12-12T14:16:00.468Z,714.38
2018-12-12T14:17:03.730Z,793.13
2018-12-12T14:18:01.147Z,607.5
2018-12-12T14:19:04.448Z,596.25
2018-12-12T14:20:18.438Z,675
2018-12-12T14:21:15.997Z,652.5
2018-12-12T14:22:17.701Z,444.38
2018-12-12T14:23:18.682Z,354.38
2018-12-12T14:24:19.383Z,365.63
2018-12-12T14:25:19.803Z,455.63
2018-12-12T14:26:20.499Z,472.5
2018-12-12T14:27:20.913Z,410.63
2018-12-12T14:28:22.355Z,376.88
2018-12-12T14:29:22.495Z,365.63
2018-12-12T14:30:24.276Z,354.38
2018-12-12T14:31:25.875Z,376.88
2018-12-12T14:32:31.830Z,382.5
2018-12-12T14:32:44.384Z,376.88
2018-12-12T14:32:54.888Z,371.25
2018-12-12T14:33:52.177Z,360
2018-12-12T14:34:52.383Z,360
2018-12-12T14:35:53.073Z,309.38
2018-12-12T14:36:53.775Z,258.75
2018-12-12T14:37:54.746Z,236.25
2018-12-12T14:38:55.172Z,258.75
2018-12-12T14:39:56.645Z,303.75
2018-12-12T14:40:57.230Z,360
2018-12-12T14:41:58.212Z,326.25
2018-12-12T14:42:59.184Z,196.88
2018-12-12T14:44:00.569Z,112.5
2018-12-12T14:45:01.262Z,95.63
2018-12-12T14:46:01.680Z,95.63
2018-12-12T14:47:02.096Z,90
2018-12-12T14:48:03.361Z,84.38
2018-12-12T14:49:04.557Z,78.75
2018-12-12T14:50:07.029Z,73.13
2018-12-12T14:51:06.146Z,67.5
2018-12-12T14:52:06.682Z,67.5
2018-12-12T14:53:06.097Z,67.5
2018-12-12T14:54:07.564Z,61.88
2018-12-12T14:55:08.006Z,56.25
2018-12-12T14:56:09.204Z,56.25
2018-12-12T14:57:09.895Z,56.25
2018-12-12T14:58:10.866Z,50.63
2018-12-12T14:59:11.289Z,50.63
2018-12-12T15:00:17.650Z,45
2018-12-12T15:00:24.306Z,45
2018-12-12T15:01:25.409Z,45
2018-12-12T15:02:26.141Z,39.38
2018-12-12T15:03:30.816Z,39.38
2018-12-12T15:04:27.567Z,33.75
2018-12-12T15:05:28.544Z,33.75
2018-12-12T15:06:29.516Z,33.75
2018-12-12T15:07:30.671Z,28.13
2018-12-12T15:08:31.427Z,28.13
2018-12-12T15:09:32.397Z,28.13
2018-12-12T15:10:33.089Z,22.5
2018-12-12T15:11:33.505Z,22.5
2018-12-12T15:12:34.204Z,22.5
2018-12-12T15:13:34.894Z,22.5
2018-12-12T15:14:35.373Z,22.5
2018-12-12T15:15:35.875Z,16.88
2018-12-12T15:16:36.291Z,16.88
2018-12-12T15:17:36.707Z,16.88
2018-12-12T15:18:37.125Z,16.88
2018-12-12T15:19:38.818Z,16.88
2018-12-12T15:20:40.159Z,11.25
2018-12-12T15:21:41.144Z,11.25
2018-12-12T15:22:41.090Z,11.25
2018-12-12T15:23:41.783Z,11.25
2018-12-12T15:24:41.989Z,11.25
2018-12-12T15:25:42.683Z,5.63
2018-12-12T15:26:43.099Z,5.63
2018-12-12T15:27:45.796Z,5.63
2018-12-12T15:28:46.814Z,5.63
2018-12-12T15:29:48.821Z,5.63
2018-12-12T15:30:49.775Z,5.63
2018-12-12T15:31:51.175Z,5.63
2018-12-12T15:32:53.033Z,5.63
2018-12-12T15:33:52.776Z,0
2018-12-12T15:34:53.470Z,0
2018-12-12T15:35:54.491Z,0
2018-12-12T15:36:55.097Z,0
2018-12-12T15:37:55.229Z,0
2018-12-12T15:38:56.639Z,0
2018-12-12T15:40:00.763Z,0
2018-12-12T15:40:11.165Z,0
2018-12-12T15:41:09.385Z,0
2018-12-12T15:42:09.798Z,0
2018-12-12T15:43:10.218Z,0
2018-12-12T15:44:10.629Z,0
2018-12-12T15:45:11.796Z,0
2018-12-12T15:46:12.487Z,0
2018-12-12T15:47:13.178Z,0
2018-12-12T15:48:13.765Z,0
2018-12-12T15:49:14.730Z,0
2018-12-12T15:50:14.142Z,0
2018-12-12T15:51:15.166Z,0
2018-12-12T15:52:15.883Z,0
2018-12-12T15:53:17.150Z,0
2018-12-12T15:54:17.117Z,0
2018-12-12T15:55:17.837Z,0
2018-12-12T15:56:19.355Z,0
2018-12-12T15:57:19.965Z,0
2018-12-12T15:58:19.749Z,0
2018-12-12T15:59:20.490Z,0
2018-12-12T16:00:20.952Z,0
2018-12-12T16:01:22.084Z,0
2018-12-12T16:02:22.497Z,0
2018-12-12T16:03:30.159Z,0
2018-12-12T16:03:38.068Z,0
2018-12-12T16:04:36.696Z,0
2018-12-12T16:05:38.936Z,0
2018-12-12T16:06:38.352Z,0
2018-12-12T16:07:40.328Z,0
2018-12-12T16:08:41.847Z,0
2018-12-12T16:09:42.812Z,0
2018-12-12T16:10:43.207Z,0
2018-12-12T16:11:43.901Z,0
2018-12-12T16:12:44.315Z,0
2018-12-12T16:13:45.004Z,0
2018-12-12T16:14:45.821Z,0
2018-12-12T16:15:46.514Z,0
2018-12-12T16:17:03.419Z,0
2018-12-12T16:18:00.443Z,0
2018-12-12T16:19:02.404Z,0
2018-12-12T16:20:06.075Z,0
2018-12-12T16:21:03.305Z,0
2018-12-12T16:22:23.520Z,0
2018-12-12T16:22:35.086Z,0
2018-12-12T16:22:48.480Z,0
2018-12-12T16:23:00.714Z,0
2018-12-12T16:23:11.440Z,0
2018-12-12T16:23:19.682Z,0
2018-12-12T16:24:19.149Z,0
2018-12-12T16:25:19.839Z,0
2018-12-12T16:26:20.037Z,0
2018-12-12T16:27:21.722Z,0
2018-12-12T16:28:21.870Z,0
2018-12-12T16:29:22.280Z,0
2018-12-12T16:30:23.692Z,0
2018-12-12T16:31:24.378Z,0
2018-12-12T16:32:24.790Z,0
2018-12-12T16:33:30.596Z,0
2018-12-12T16:33:42.558Z,0
2018-12-12T16:33:53.839Z,0
2018-12-12T16:34:04.582Z,0
2018-12-12T16:35:03.290Z,0
2018-12-12T16:36:20.928Z,0
2018-12-12T16:36:33.544Z,0
2018-12-12T16:36:45.764Z,0
2018-12-12T16:36:53.856Z,0
2018-12-12T16:37:52.609Z,0
2018-12-12T16:38:53.299Z,0
2018-12-12T16:39:54.265Z,0
2018-12-12T16:40:54.680Z,0
2018-12-12T16:41:54.807Z,0
2018-12-12T16:42:56.217Z,0
2018-12-12T16:43:56.628Z,0
2018-12-12T16:44:58.035Z,0
2018-12-12T16:45:59.005Z,0
2018-12-12T16:46:59.413Z,0
2018-12-12T16:48:00.107Z,0
2018-12-12T16:49:00.515Z,0
2018-12-12T16:50:00.923Z,0
2018-12-12T16:51:01.619Z,0
2018-12-12T16:52:03.197Z,0
2018-12-12T16:53:03.437Z,0
2018-12-12T16:54:04.153Z,0
2018-12-12T16:55:04.581Z,0
2018-12-12T16:56:04.987Z,0
2018-12-12T16:57:06.673Z,0
2018-12-12T16:58:06.942Z,0
2018-12-12T16:59:08.357Z,0
2018-12-12T17:00:09.343Z,0
2018-12-12T17:01:09.753Z,0
2018-12-12T17:02:10.468Z,0
2018-12-12T17:03:12.313Z,0
2018-12-12T17:04:23.599Z,0
2018-12-12T17:05:24.711Z,0
2018-12-12T17:06:24.128Z,0
2018-12-12T17:07:25.537Z,0
2018-12-12T17:08:25.948Z,0
2018-12-12T17:09:26.638Z,0
2018-12-12T17:10:27.324Z,0
2018-12-12T17:11:28.292Z,0
2018-12-12T17:12:28.761Z,0
2018-12-12T17:13:30.003Z,0
2018-12-12T17:14:32.925Z,0
2018-12-12T17:15:31.787Z,0
2018-12-12T17:16:33.752Z,0
2018-12-12T17:17:33.882Z,0
2018-12-12T17:18:35.014Z,0
2018-12-12T17:19:37.470Z,0
2018-12-12T17:20:37.155Z,0
2018-12-12T17:21:37.840Z,0
2018-12-12T17:22:38.529Z,0
2018-12-12T17:23:38.940Z,0
2018-12-12T17:24:39.087Z,0
2018-12-12T17:25:40.266Z,0
2018-12-12T17:26:40.951Z,0
2018-12-12T17:27:41.641Z,0
2018-12-12T17:28:42.615Z,0
2018-12-12T17:29:43.306Z,0
2018-12-12T17:30:43.721Z,0
2018-12-12T17:31:44.404Z,0
2018-12-12T17:32:45.367Z,0
2018-12-12T17:33:50.035Z,0
2018-12-12T17:34:47.779Z,0
2018-12-12T17:35:48.992Z,0
2018-12-12T17:36:50.187Z,0
2018-12-12T17:37:50.648Z,0
2018-12-12T17:38:51.334Z,0
2018-12-12T17:39:51.465Z,0
2018-12-12T17:40:54.126Z,0
2018-12-12T17:41:53.530Z,0
2018-12-12T17:42:53.942Z,0
2018-12-12T17:43:56.416Z,0
2018-12-12T17:44:55.347Z,0
2018-12-12T17:45:56.016Z,0
2018-12-12T17:46:56.427Z,0
2018-12-12T17:47:57.394Z,0
2018-12-12T17:48:57.807Z,0
2018-12-12T17:49:58.275Z,0
2018-12-12T17:50:59.237Z,0
2018-12-12T17:51:59.927Z,0
2018-12-12T17:53:00.339Z,0
2018-12-12T17:54:01.469Z,0
2018-12-12T17:55:02.604Z,0
2018-12-12T17:56:03.230Z,0
2018-12-12T17:57:04.190Z,0
2018-12-12T17:58:04.604Z,0
2018-12-12T17:59:05.735Z,0
2018-12-12T18:00:07.145Z,0
2018-12-12T18:01:07.835Z,0
2018-12-12T18:02:08.819Z,0
2018-12-12T18:03:08.782Z,0
2018-12-12T18:04:11.665Z,0
2018-12-12T18:05:26.394Z,0
2018-12-12T18:06:23.049Z,0
2018-12-12T18:07:23.517Z,0
2018-12-12T18:08:23.942Z,0
2018-12-12T18:09:25.631Z,0
2018-12-12T18:10:26.603Z,0
2018-12-12T18:11:27.289Z,0
2018-12-12T18:12:28.257Z,0
2018-12-12T18:13:28.671Z,0
2018-12-12T18:14:29.364Z,0